createdAt,value
2023-01-29T00:01:46.153Z,70.70
2023-01-29T00:04:13.765Z,69.70
2023-01-29T00:06:41.352Z,70.90
2023-01-29T00:09:11.404Z,70.50
2023-01-29T00:11:38.972Z,69.20
2023-01-29T00:14:06.572Z,68.30
2023-01-29T00:16:36.714Z,67.80
2023-01-29T00:19:04.515Z,68.20
2023-01-29T00:21:32.357Z,68.50
2023-01-29T00:24:02.655Z,67.80
2023-01-29T00:26:30.421Z,67.10
2023-01-29T00:28:58.145Z,66.90
2023-01-29T00:31:28.716Z,67.00
2023-01-29T00:33:56.592Z,66.50
2023-01-29T00:36:24.156Z,66.70
2023-01-29T00:38:55.409Z,67.50
2023-01-29T00:41:23.001Z,66.20
2023-01-29T00:43:50.660Z,66.10
2023-01-29T00:46:20.949Z,65.70
2023-01-29T00:48:48.807Z,65.60
2023-01-29T00:51:16.358Z,64.20
2023-01-29T00:53:47.118Z,63.60
2023-01-29T00:56:14.893Z,64.50
2023-01-29T00:58:42.458Z,63.50
2023-01-29T01:01:12.547Z,63.80
2023-01-29T01:03:40.160Z,62.40
2023-01-29T01:06:07.753Z,62.90
2023-01-29T01:08:35.800Z,61.60
2023-01-29T01:11:06.275Z,61.00
2023-01-29T01:13:33.926Z,61.00
2023-01-29T01:16:03.935Z,60.50
2023-01-29T01:18:32.480Z,59.20
2023-01-29T01:21:01.053Z,59.00
2023-01-29T01:23:28.839Z,59.30
2023-01-29T01:25:56.407Z,58.90
2023-01-29T01:28:23.964Z,58.10
2023-01-29T01:30:54.144Z,58.90
2023-01-29T01:33:21.769Z,57.50
2023-01-29T01:35:49.441Z,57.50
2023-01-29T01:38:19.469Z,57.20
2023-01-29T01:40:47.278Z,57.40
2023-01-29T01:43:14.870Z,57.70
2023-01-29T01:45:44.946Z,56.40
2023-01-29T01:48:12.504Z,56.30
2023-01-29T01:50:43.130Z,55.80
2023-01-29T01:53:13.248Z,56.20
2023-01-29T01:55:43.759Z,56.00
2023-01-29T01:58:11.392Z,56.10
2023-01-29T02:00:42.546Z,55.30
2023-01-29T02:03:10.289Z,54.90
2023-01-29T02:05:37.961Z,54.70
2023-01-29T02:08:05.753Z,54.40
2023-01-29T02:10:33.253Z,55.00
2023-01-29T02:13:00.841Z,55.10
2023-01-29T02:15:30.658Z,54.20
2023-01-29T02:17:58.335Z,54.30
2023-01-29T02:20:26.151Z,54.20
2023-01-29T02:22:56.796Z,53.10
2023-01-29T02:25:24.521Z,53.00
2023-01-29T02:27:52.281Z,52.10
2023-01-29T02:30:22.190Z,51.30
2023-01-29T02:32:49.845Z,51.30
2023-01-29T02:35:17.507Z,51.10
2023-01-29T02:37:45.095Z,51.40
2023-01-29T02:40:12.675Z,51.80
2023-01-29T02:42:40.319Z,52.10
2023-01-29T02:45:18.512Z,51.40
2023-01-29T02:47:47.921Z,49.80
2023-01-29T02:50:24.035Z,48.90
2023-01-29T02:52:52.558Z,48.90
2023-01-29T02:55:21.421Z,49.00
2023-01-29T02:57:51.925Z,48.60
2023-01-29T03:00:24.217Z,48.60
2023-01-29T03:02:52.370Z,47.50
2023-01-29T03:05:20.083Z,47.90
2023-01-29T03:07:47.977Z,47.90
2023-01-29T03:10:16.795Z,47.80
2023-01-29T03:12:45.040Z,47.70
2023-01-29T03:15:13.937Z,45.80
2023-01-29T03:17:42.661Z,45.70
2023-01-29T03:20:12.696Z,45.20
2023-01-29T03:22:40.631Z,45.50
2023-01-29T03:25:08.204Z,45.90
2023-01-29T03:27:38.416Z,46.50
2023-01-29T03:30:06.178Z,45.70
2023-01-29T03:32:34.857Z,45.20
2023-01-29T03:35:04.720Z,44.90
2023-01-29T03:37:32.576Z,44.90
2023-01-29T03:40:00.633Z,44.70
2023-01-29T03:42:28.891Z,45.10
2023-01-29T03:44:56.822Z,44.40
2023-01-29T03:47:24.528Z,45.00
2023-01-29T03:49:52.430Z,44.30
2023-01-29T03:52:20.204Z,43.70
2023-01-29T03:54:47.959Z,43.60
2023-01-29T03:57:17.752Z,44.00
2023-01-29T03:59:45.743Z,44.50
2023-01-29T04:02:13.515Z,43.80
2023-01-29T04:04:41.585Z,43.70
2023-01-29T04:07:09.543Z,43.20
2023-01-29T04:09:37.448Z,42.90
2023-01-29T04:12:11.964Z,42.50
2023-01-29T04:14:40.914Z,42.80
2023-01-29T04:17:08.539Z,42.70
2023-01-29T04:19:38.379Z,42.60
2023-01-29T04:22:06.094Z,42.30
2023-01-29T04:24:34.305Z,43.00
2023-01-29T04:27:01.979Z,42.90
2023-01-29T04:29:30.278Z,42.30
2023-01-29T04:31:58.001Z,42.10
2023-01-29T04:34:32.442Z,42.70
2023-01-29T04:37:02.654Z,43.10
2023-01-29T04:39:30.174Z,42.90
2023-01-29T04:41:58.070Z,42.60
2023-01-29T04:44:28.060Z,42.50
2023-01-29T04:46:55.676Z,42.60
2023-01-29T04:49:23.299Z,42.50
2023-01-29T04:51:53.543Z,42.50
2023-01-29T04:54:21.088Z,43.20
2023-01-29T04:56:57.305Z,42.30
2023-01-29T04:59:24.909Z,41.90
2023-01-29T05:01:52.596Z,42.30
2023-01-29T05:04:22.665Z,41.70
2023-01-29T05:06:50.769Z,42.40
2023-01-29T05:09:18.505Z,43.50
2023-01-29T05:11:47.453Z,42.90
2023-01-29T05:14:14.994Z,43.20
2023-01-29T05:16:42.628Z,42.60
2023-01-29T05:19:17.316Z,43.00
2023-01-29T05:21:45.026Z,42.20
2023-01-29T05:24:12.874Z,42.70
2023-01-29T05:26:42.783Z,42.00
2023-01-29T05:29:10.356Z,41.20
2023-01-29T05:31:38.134Z,42.20
2023-01-29T05:34:08.079Z,43.10
2023-01-29T05:36:38.364Z,41.90
2023-01-29T05:39:05.896Z,42.20
2023-01-29T05:41:35.817Z,42.20
2023-01-29T05:44:04.093Z,41.50
2023-01-29T05:46:31.906Z,41.60
2023-01-29T05:49:07.108Z,41.60
2023-01-29T05:51:35.001Z,41.50
2023-01-29T05:54:03.005Z,41.10
2023-01-29T05:56:32.933Z,41.70
2023-01-29T05:59:05.375Z,41.90
2023-01-29T06:01:33.359Z,42.40
2023-01-29T06:04:03.431Z,41.70
2023-01-29T06:06:31.555Z,41.90
2023-01-29T06:08:59.307Z,41.30
2023-01-29T06:11:35.245Z,41.10
2023-01-29T06:14:02.919Z,41.60
2023-01-29T06:16:31.197Z,42.00
2023-01-29T06:18:59.104Z,42.20
2023-01-29T06:21:26.842Z,40.90
2023-01-29T06:23:54.407Z,41.20
2023-01-29T06:26:24.500Z,41.70
2023-01-29T06:28:52.220Z,41.50
2023-01-29T06:31:36.685Z,40.70
2023-01-29T06:34:08.280Z,41.30
2023-01-29T06:36:37.415Z,41.40
2023-01-29T06:39:07.092Z,40.60
2023-01-29T06:41:35.865Z,41.30
2023-01-29T06:44:04.045Z,41.40
2023-01-29T06:46:32.506Z,41.00
2023-01-29T06:49:02.432Z,41.20
2023-01-29T06:51:30.142Z,41.00
2023-01-29T06:53:57.806Z,41.70
2023-01-29T06:56:27.811Z,41.30
2023-01-29T06:58:55.363Z,41.40
2023-01-29T07:01:35.826Z,41.50
2023-01-29T07:04:06.292Z,41.70
2023-01-29T07:06:34.733Z,41.70
2023-01-29T07:09:02.330Z,41.20
2023-01-29T07:11:32.541Z,41.60
2023-01-29T07:14:00.475Z,41.80
2023-01-29T07:16:28.150Z,40.40
2023-01-29T07:18:57.886Z,40.50
2023-01-29T07:21:25.661Z,41.00
2023-01-29T07:23:53.241Z,41.30
2023-01-29T07:26:22.989Z,40.70
2023-01-29T07:28:51.033Z,41.20
2023-01-29T07:31:19.034Z,40.70
2023-01-29T07:33:48.828Z,41.30
2023-01-29T07:36:16.645Z,41.50
2023-01-29T07:38:44.215Z,41.70
2023-01-29T07:41:11.936Z,40.90
2023-01-29T07:43:40.935Z,40.60
2023-01-29T07:46:08.791Z,40.40
2023-01-29T07:48:38.844Z,40.20
2023-01-29T07:51:06.594Z,40.60
2023-01-29T07:53:34.171Z,41.30
2023-01-29T07:56:04.392Z,41.10
2023-01-29T07:58:32.316Z,40.60
2023-01-29T08:00:59.883Z,40.40
2023-01-29T08:03:31.025Z,40.70
2023-01-29T08:05:58.862Z,41.00
2023-01-29T08:08:26.553Z,40.50
2023-01-29T08:10:57.766Z,41.20
2023-01-29T08:13:25.309Z,40.60
2023-01-29T08:15:53.066Z,40.30
2023-01-29T08:18:26.772Z,41.00
2023-01-29T08:20:56.863Z,41.30
2023-01-29T08:23:24.407Z,39.80
2023-01-29T08:25:53.122Z,40.20
2023-01-29T08:28:23.270Z,40.60
2023-01-29T08:30:50.976Z,40.60
2023-01-29T08:33:23.788Z,40.70
2023-01-29T08:35:56.725Z,40.90
2023-01-29T08:38:24.230Z,41.10
2023-01-29T08:40:52.112Z,41.30
2023-01-29T08:43:19.898Z,41.30
2023-01-29T08:45:47.456Z,40.70
2023-01-29T08:48:15.231Z,41.10
2023-01-29T08:50:46.364Z,40.60
2023-01-29T08:53:13.971Z,40.90
2023-01-29T08:55:41.474Z,41.70
2023-01-29T08:58:11.682Z,41.10
2023-01-29T09:00:39.317Z,41.50
2023-01-29T09:03:08.255Z,41.80
2023-01-29T09:05:40.033Z,41.80
2023-01-29T09:08:07.580Z,41.60
2023-01-29T09:10:35.159Z,40.90
2023-01-29T09:13:05.004Z,41.10
2023-01-29T09:15:32.571Z,41.30
2023-01-29T09:18:00.131Z,40.80
2023-01-29T09:20:30.380Z,41.40
2023-01-29T09:22:58.089Z,40.80
2023-01-29T09:25:25.695Z,41.50
2023-01-29T09:27:56.008Z,42.40
2023-01-29T09:30:24.254Z,41.80
2023-01-29T09:32:53.878Z,42.20
2023-01-29T09:35:24.579Z,42.00
2023-01-29T09:37:52.420Z,41.90
2023-01-29T09:40:20.048Z,42.20
2023-01-29T09:42:48.506Z,42.60
2023-01-29T09:45:16.395Z,42.90
2023-01-29T09:47:45.025Z,43.20
2023-01-29T09:50:15.326Z,42.80
2023-01-29T09:52:42.881Z,42.10
2023-01-29T09:55:10.537Z,42.40
2023-01-29T09:57:45.883Z,42.60
2023-01-29T10:00:14.442Z,42.80
2023-01-29T10:02:42.171Z,43.10
2023-01-29T10:05:09.737Z,43.00
2023-01-29T10:07:38.264Z,43.40
2023-01-29T10:10:06.073Z,43.20
2023-01-29T10:12:33.769Z,43.40
2023-01-29T10:15:04.522Z,43.40
2023-01-29T10:17:32.661Z,43.30
2023-01-29T10:20:00.188Z,43.40
2023-01-29T10:22:38.264Z,43.20
2023-01-29T10:25:12.124Z,43.50
2023-01-29T10:27:39.692Z,44.00
2023-01-29T10:30:07.400Z,44.00
2023-01-29T10:32:38.191Z,43.60
2023-01-29T10:35:05.827Z,43.60
2023-01-29T10:37:33.724Z,43.60
2023-01-29T10:40:07.618Z,43.60
2023-01-29T10:42:44.183Z,43.80
2023-01-29T10:45:11.803Z,44.20
2023-01-29T10:47:39.672Z,44.60
2023-01-29T10:50:07.837Z,44.80
2023-01-29T10:52:35.388Z,45.10
2023-01-29T10:55:02.964Z,45.40
2023-01-29T10:57:32.004Z,45.70
2023-01-29T10:59:59.515Z,45.70
2023-01-29T11:02:27.074Z,45.50
2023-01-29T11:04:57.753Z,45.30
2023-01-29T11:07:25.749Z,45.50
2023-01-29T11:09:54.042Z,45.40
2023-01-29T11:12:28.246Z,45.70
2023-01-29T11:14:56.541Z,46.10
2023-01-29T11:17:24.713Z,46.70
2023-01-29T11:20:01.909Z,46.60
2023-01-29T11:22:32.489Z,46.80
2023-01-29T11:25:00.201Z,47.50
2023-01-29T11:27:28.003Z,47.60
2023-01-29T11:29:58.367Z,47.90
2023-01-29T11:32:26.584Z,48.10
2023-01-29T11:34:54.335Z,48.20
2023-01-29T11:37:25.839Z,48.30
2023-01-29T11:40:07.152Z,48.50
2023-01-29T11:42:35.121Z,48.70
2023-01-29T11:45:03.444Z,49.10
2023-01-29T11:47:36.173Z,49.00
2023-01-29T11:50:04.512Z,49.30
2023-01-29T11:52:33.883Z,49.00
2023-01-29T11:55:06.104Z,49.60
2023-01-29T11:57:34.467Z,49.40
2023-01-29T12:00:02.593Z,49.40
2023-01-29T12:02:35.149Z,49.30
2023-01-29T12:05:03.869Z,49.30
2023-01-29T12:07:31.917Z,49.00
2023-01-29T12:10:07.668Z,50.00
2023-01-29T12:12:36.494Z,50.30
2023-01-29T12:15:04.194Z,50.50
2023-01-29T12:17:35.802Z,50.50
2023-01-29T12:20:03.677Z,50.60
2023-01-29T12:22:31.947Z,50.70
2023-01-29T12:25:02.720Z,51.20
2023-01-29T12:27:30.469Z,51.40
2023-01-29T12:29:57.971Z,52.00
2023-01-29T12:32:33.249Z,51.90
2023-01-29T12:35:03.607Z,51.80
2023-01-29T12:37:35.576Z,52.40
2023-01-29T12:40:03.601Z,52.60
2023-01-29T12:42:33.875Z,53.00
2023-01-29T12:45:01.512Z,52.70
2023-01-29T12:47:33.966Z,53.50
2023-01-29T12:50:02.776Z,53.60
2023-01-29T12:52:31.409Z,53.70
2023-01-29T12:54:59.053Z,53.90
2023-01-29T12:57:27.267Z,54.70
2023-01-29T12:59:54.899Z,54.60
2023-01-29T13:02:22.842Z,54.70
2023-01-29T13:04:52.841Z,55.30
2023-01-29T13:07:20.461Z,55.60
2023-01-29T13:09:48.706Z,55.50
2023-01-29T13:12:18.634Z,55.80
2023-01-29T13:14:46.704Z,55.80
2023-01-29T13:17:14.581Z,55.70
2023-01-29T13:19:44.415Z,55.50
2023-01-29T13:22:12.092Z,55.20
2023-01-29T13:24:39.758Z,55.70
2023-01-29T13:27:07.626Z,55.10
2023-01-29T13:29:35.261Z,54.90
2023-01-29T13:32:04.365Z,55.00
2023-01-29T13:34:34.570Z,55.30
2023-01-29T13:37:02.769Z,55.60
2023-01-29T13:39:30.750Z,56.40
2023-01-29T13:42:00.682Z,57.20
2023-01-29T13:44:28.271Z,57.00
2023-01-29T13:46:56.246Z,57.10
2023-01-29T13:49:27.029Z,56.90
2023-01-29T13:51:54.649Z,57.20
2023-01-29T13:54:22.381Z,57.30
2023-01-29T13:56:51.461Z,57.40
2023-01-29T13:59:19.070Z,57.80
2023-01-29T14:01:46.721Z,58.00
2023-01-29T14:04:14.507Z,57.60
2023-01-29T14:06:42.265Z,57.30
2023-01-29T14:09:10.213Z,57.70
2023-01-29T14:11:38.155Z,57.30
2023-01-29T14:14:05.681Z,57.70
2023-01-29T14:16:33.670Z,58.00
2023-01-29T14:19:03.564Z,58.10
2023-01-29T14:21:31.359Z,58.00
2023-01-29T14:23:59.412Z,58.10
2023-01-29T14:26:29.254Z,58.00
2023-01-29T14:28:57.017Z,59.10
2023-01-29T14:31:24.916Z,58.20
2023-01-29T14:33:54.880Z,57.40
2023-01-29T14:36:22.548Z,56.60
2023-01-29T14:38:52.539Z,56.10
2023-01-29T14:41:23.690Z,55.90
2023-01-29T14:43:52.183Z,55.80
2023-01-29T14:46:19.763Z,55.40
2023-01-29T14:48:47.923Z,55.40
2023-01-29T14:51:15.858Z,55.40
2023-01-29T14:53:43.510Z,55.60
2023-01-29T14:56:13.404Z,55.80
2023-01-29T14:58:41.504Z,56.30
2023-01-29T15:01:09.146Z,56.80
2023-01-29T15:03:37.973Z,57.00
2023-01-29T15:06:05.710Z,57.40
2023-01-29T15:08:33.229Z,57.80
2023-01-29T15:11:03.122Z,58.40
2023-01-29T15:13:30.979Z,58.30
2023-01-29T15:15:58.516Z,58.80
2023-01-29T15:18:28.430Z,58.60
2023-01-29T15:20:56.154Z,58.40
2023-01-29T15:23:23.724Z,58.10
2023-01-29T15:25:53.632Z,58.40
2023-01-29T15:28:21.447Z,58.10
2023-01-29T15:30:49.061Z,58.30
2023-01-29T15:33:16.713Z,58.10
2023-01-29T15:35:44.417Z,58.30
2023-01-29T15:38:12.024Z,57.80
2023-01-29T15:40:41.941Z,57.90
2023-01-29T15:43:09.969Z,58.10
2023-01-29T15:45:37.589Z,58.20
2023-01-29T15:48:07.470Z,58.40
2023-01-29T15:50:35.446Z,58.60
2023-01-29T15:53:02.988Z,58.40
2023-01-29T15:55:32.866Z,58.00
2023-01-29T15:58:00.634Z,57.70
2023-01-29T16:00:28.283Z,58.00
2023-01-29T16:02:56.014Z,57.70
2023-01-29T16:05:23.746Z,57.50
2023-01-29T16:07:51.226Z,57.30
2023-01-29T16:10:21.205Z,57.30
2023-01-29T16:12:49.056Z,57.30
2023-01-29T16:15:16.847Z,57.10
2023-01-29T16:17:47.249Z,57.00
2023-01-29T16:20:14.883Z,56.90
2023-01-29T16:22:42.531Z,56.80
2023-01-29T16:25:12.246Z,56.90
2023-01-29T16:27:39.959Z,56.90
2023-01-29T16:30:07.558Z,57.40
2023-01-29T16:32:37.409Z,57.20
2023-01-29T16:35:05.211Z,57.50
2023-01-29T16:37:33.487Z,58.40
2023-01-29T16:40:03.404Z,57.80
2023-01-29T16:42:31.253Z,57.90
2023-01-29T16:44:58.928Z,58.50
2023-01-29T16:47:28.743Z,58.30
2023-01-29T16:49:56.534Z,58.40
2023-01-29T16:52:24.103Z,59.30
2023-01-29T16:54:52.454Z,59.60
2023-01-29T16:57:20.028Z,59.80
2023-01-29T16:59:47.543Z,60.10
2023-01-29T17:02:17.385Z,60.10
2023-01-29T17:04:44.995Z,60.30
2023-01-29T17:07:12.653Z,60.60
2023-01-29T17:09:40.423Z,61.20
2023-01-29T17:12:08.374Z,61.60
2023-01-29T17:14:36.005Z,62.00
2023-01-29T17:17:05.490Z,62.20
2023-01-29T17:19:33.991Z,62.90
2023-01-29T17:22:01.962Z,63.30
2023-01-29T17:24:31.979Z,63.30
2023-01-29T17:26:59.795Z,63.30
2023-01-29T17:29:27.362Z,63.60
2023-01-29T17:31:57.142Z,63.30
2023-01-29T17:34:24.834Z,63.60
2023-01-29T17:36:52.537Z,63.80
2023-01-29T17:39:22.436Z,64.40
2023-01-29T17:41:50.245Z,64.80
2023-01-29T17:44:17.819Z,64.80
2023-01-29T17:46:45.621Z,65.20
2023-01-29T17:49:13.884Z,65.40
2023-01-29T17:51:41.515Z,65.40
2023-01-29T17:54:11.326Z,65.60
2023-01-29T17:56:39.121Z,65.70
2023-01-29T17:59:06.753Z,65.80
2023-01-29T18:01:36.566Z,66.20
2023-01-29T18:04:05.340Z,66.40
2023-01-29T18:06:34.288Z,66.40
2023-01-29T18:09:04.453Z,66.50
2023-01-29T18:11:35.008Z,66.60
2023-01-29T18:14:13.813Z,66.70
2023-01-29T18:16:46.609Z,67.00
2023-01-29T18:19:17.806Z,67.20
2023-01-29T18:21:45.801Z,67.50
2023-01-29T18:24:16.254Z,67.70
2023-01-29T18:26:44.557Z,67.50
2023-01-29T18:29:13.041Z,67.90
2023-01-29T18:31:45.628Z,68.10
2023-01-29T18:34:14.117Z,68.30
2023-01-29T18:36:42.526Z,68.60
2023-01-29T18:39:14.272Z,68.70
2023-01-29T18:41:42.582Z,69.00
2023-01-29T18:44:11.099Z,69.60
2023-01-29T18:46:49.405Z,70.00
2023-01-29T18:49:16.999Z,69.60
2023-01-29T18:51:54.026Z,70.00
2023-01-29T18:54:22.215Z,69.40
2023-01-29T18:57:06.235Z,69.00
2023-01-29T18:59:44.760Z,68.80
2023-01-29T19:02:17.980Z,68.80
2023-01-29T19:04:46.708Z,68.40
2023-01-29T19:07:21.572Z,68.90
2023-01-29T19:09:49.479Z,69.00
2023-01-29T19:12:19.370Z,68.80
2023-01-29T19:14:49.385Z,68.80
2023-01-29T19:17:17.301Z,68.50
2023-01-29T19:19:45.291Z,68.10
2023-01-29T19:22:16.620Z,67.30
2023-01-29T19:24:44.319Z,67.20
2023-01-29T19:27:12.900Z,67.10
2023-01-29T19:29:43.577Z,67.60
2023-01-29T19:32:12.576Z,68.00
2023-01-29T19:34:48.787Z,68.30
2023-01-29T19:37:16.505Z,68.50
2023-01-29T19:39:44.800Z,69.50
2023-01-29T19:42:15.994Z,69.80
2023-01-29T19:44:43.537Z,69.90
2023-01-29T19:47:13.812Z,69.80
2023-01-29T19:49:42.924Z,69.40
2023-01-29T19:52:11.152Z,69.20
2023-01-29T19:54:40.646Z,69.70
2023-01-29T19:57:10.434Z,69.80
2023-01-29T19:59:38.052Z,70.10
2023-01-29T20:02:09.101Z,70.60
2023-01-29T20:04:39.304Z,70.80
2023-01-29T20:07:06.939Z,71.00
2023-01-29T20:09:37.129Z,71.10
2023-01-29T20:12:07.239Z,71.10
2023-01-29T20:14:34.916Z,70.50
2023-01-29T20:17:07.813Z,70.20
2023-01-29T20:19:38.335Z,70.30
2023-01-29T20:22:14.849Z,69.90
2023-01-29T20:24:44.208Z,69.60
2023-01-29T20:27:12.007Z,69.30
2023-01-29T20:29:40.193Z,68.60
2023-01-29T20:32:13.625Z,68.10
2023-01-29T20:34:43.833Z,67.30
2023-01-29T20:37:19.023Z,67.90
2023-01-29T20:39:47.371Z,67.50
2023-01-29T20:42:16.081Z,67.10
2023-01-29T20:44:45.927Z,65.50
2023-01-29T20:47:15.292Z,65.50
2023-01-29T20:49:43.619Z,65.00
2023-01-29T20:52:14.853Z,65.10
2023-01-29T20:54:46.410Z,64.20
2023-01-29T20:57:22.097Z,64.10
2023-01-29T20:59:53.884Z,63.60
2023-01-29T21:02:22.987Z,62.60
2023-01-29T21:04:53.676Z,62.60
2023-01-29T21:07:21.304Z,62.30
2023-01-29T21:09:48.721Z,62.10
2023-01-29T21:12:37.387Z,62.50
2023-01-29T21:15:25.127Z,62.40
2023-01-29T21:18:15.455Z,61.70
2023-01-29T21:21:03.257Z,62.20
2023-01-29T21:23:53.259Z,62.30
2023-01-29T21:26:41.036Z,61.70
2023-01-29T21:29:31.141Z,61.50
2023-01-29T21:32:18.889Z,60.70
2023-01-29T21:35:09.117Z,61.60
2023-01-29T21:37:56.860Z,61.10
2023-01-29T21:40:46.972Z,61.10
2023-01-29T21:43:34.712Z,61.20
2023-01-29T21:46:22.743Z,60.60
2023-01-29T21:49:10.553Z,61.40
2023-01-29T21:52:00.741Z,61.90
2023-01-29T21:54:48.545Z,61.50
2023-01-29T21:57:38.523Z,61.80
2023-01-29T22:00:26.259Z,61.50
2023-01-29T22:03:16.577Z,62.00
2023-01-29T22:06:04.334Z,61.50
2023-01-29T22:08:54.546Z,61.40
2023-01-29T22:11:42.480Z,61.30
2023-01-29T22:14:30.537Z,62.10
2023-01-29T22:17:18.301Z,62.40
2023-01-29T22:20:08.458Z,62.70
2023-01-29T22:22:56.198Z,63.00
2023-01-29T22:25:46.359Z,63.10
2023-01-29T22:28:34.105Z,63.60
2023-01-29T22:31:24.406Z,64.10
2023-01-29T22:34:12.156Z,64.30
2023-01-29T22:36:42.058Z,64.40
2023-01-29T22:39:35.550Z,64.90
2023-01-29T22:42:06.692Z,66.30
2023-01-29T22:44:54.116Z,67.30
2023-01-29T22:47:34.212Z,67.80
2023-01-29T22:50:02.025Z,67.90
2023-01-29T22:58:31.862Z,68.50
2023-01-29T23:01:00.470Z,68.90
2023-01-29T23:03:43.071Z,69.30
2023-01-29T23:06:23.163Z,69.80
2023-01-29T23:08:59.608Z,70.00
2023-01-29T23:11:32.860Z,70.10
2023-01-29T23:14:08.573Z,71.50
2023-01-29T23:16:39.387Z,70.80
2023-01-29T23:19:17.347Z,69.90
2023-01-29T23:21:54.327Z,70.60
2023-01-29T23:24:27.184Z,70.50
2023-01-29T23:27:06.742Z,70.40
2023-01-29T23:29:37.490Z,71.80
2023-01-29T23:32:08.047Z,73.00
2023-01-29T23:34:41.767Z,73.00
2023-01-29T23:37:10.603Z,71.40
2023-01-29T23:39:40.764Z,70.70
2023-01-29T23:42:10.214Z,70.50
2023-01-29T23:44:41.336Z,70.40
2023-01-29T23:47:10.706Z,69.90
2023-01-29T23:49:41.713Z,69.30
2023-01-29T23:52:10.085Z,69.40
2023-01-29T23:54:37.911Z,68.70
2023-01-29T23:57:08.029Z,68.60
2023-01-29T23:59:35.681Z,68.50
